Terminal Aerodrome Forecast
Issued by NWS

Home | Current Version | Previous Version | Text Only | Print | Product List | Glossary On
Versions: 1 2 3 4 5 6 7 8 9 10 11 12 13 14 15 16 17 18 19 20 21 22
799
FTUS46 KSGX 060520
TAFSNA
TAF
KSNA 060520Z 0606/0706 17006KT P6SM -SHRA SCT015 SCT025 OVC035
     FM061800 19010KT P6SM -SHRA SCT015 BKN025
     FM062100 22010G18KT P6SM VCSH SCT025 BKN035
     FM070200 24006KT P6SM VCSH SCT025 BKN035=

USA.gov is the U.S. government's official web portal to all federal, state and local government web resources and services.